createdAt,value
2023-04-02T00:00:11.799Z,3.95
2023-04-02T00:02:48.343Z,3.75
2023-04-02T00:05:19.525Z,3.35
2023-04-02T00:07:53.450Z,2.72
2023-04-02T00:10:29.483Z,3.83
2023-04-02T00:13:16.803Z,3.63
2023-04-02T00:15:46.595Z,3.10
2023-04-02T00:18:23.314Z,2.70
2023-04-02T00:20:56.743Z,3.10
2023-04-02T00:23:24.267Z,3.05
2023-04-02T00:25:51.328Z,3.15
2023-04-02T00:28:22.978Z,3.90
2023-04-02T00:30:51.322Z,3.00
2023-04-02T00:33:20.376Z,3.10
2023-04-02T00:35:49.071Z,3.40
2023-04-02T00:38:20.668Z,3.33
2023-04-02T00:40:47.897Z,2.83
2023-04-02T00:43:16.749Z,3.17
2023-04-02T00:45:50.752Z,3.03
2023-04-02T00:48:26.166Z,3.10
2023-04-02T00:50:54.061Z,2.67
2023-04-02T00:53:31.193Z,3.20
2023-04-02T00:55:59.072Z,3.42
2023-04-02T00:58:27.853Z,2.53
2023-04-02T01:00:55.177Z,2.85
2023-04-02T01:03:28.937Z,3.55
2023-04-02T01:06:02.789Z,3.17
2023-04-02T01:08:48.559Z,2.60
2023-04-02T01:11:23.798Z,3.55
2023-04-02T01:13:58.634Z,2.65
2023-04-02T01:16:32.186Z,3.35
2023-04-02T01:19:27.302Z,3.00
2023-04-02T01:21:57.438Z,2.90
2023-04-02T01:24:27.045Z,3.17
2023-04-02T01:26:57.601Z,3.15
2023-04-02T01:29:35.102Z,3.28
2023-04-02T01:32:04.491Z,3.78
2023-04-02T01:34:32.137Z,5.10
2023-04-02T01:37:17.908Z,3.45
2023-04-02T01:40:10.132Z,3.53
2023-04-02T01:42:42.323Z,3.28
2023-04-02T01:45:11.292Z,4.10
2023-04-02T01:47:39.438Z,3.05
2023-04-02T01:50:18.202Z,3.10
2023-04-02T01:52:46.771Z,3.40
2023-04-02T01:55:14.934Z,3.15
2023-04-02T01:57:43.658Z,3.08
2023-04-02T02:00:14.869Z,2.88
2023-04-02T02:02:42.350Z,2.80
2023-04-02T02:05:13.501Z,2.60
2023-04-02T02:07:41.316Z,1.90
2023-04-02T02:10:11.076Z,2.80
2023-04-02T02:12:38.142Z,2.38
2023-04-02T02:15:05.421Z,3.08
2023-04-02T02:17:34.525Z,2.25
2023-04-02T02:20:04.967Z,2.40
2023-04-02T02:22:34.260Z,2.20
2023-04-02T02:25:06.492Z,1.95
2023-04-02T02:27:52.204Z,1.88
2023-04-02T02:30:19.264Z,1.90
2023-04-02T02:32:55.500Z,1.40
2023-04-02T02:35:24.864Z,1.73
2023-04-02T02:37:56.006Z,1.52
2023-04-02T02:40:27.723Z,1.30
2023-04-02T02:43:00.824Z,1.73
2023-04-02T02:45:29.805Z,1.50
2023-04-02T02:47:57.239Z,1.33
2023-04-02T02:50:26.276Z,1.15
2023-04-02T02:52:58.736Z,1.48
2023-04-02T02:55:29.278Z,1.92
2023-04-02T02:57:59.721Z,2.22
2023-04-02T03:00:27.066Z,1.25
2023-04-02T03:02:56.317Z,1.50
2023-04-02T03:05:25.018Z,1.60
2023-04-02T03:07:53.310Z,2.20
2023-04-02T03:10:22.882Z,1.63
2023-04-02T03:12:53.508Z,1.20
2023-04-02T03:15:28.126Z,1.23
2023-04-02T03:18:03.424Z,1.58
2023-04-02T03:20:37.535Z,1.27
2023-04-02T03:23:13.159Z,1.35
2023-04-02T03:25:42.115Z,1.70
2023-04-02T03:28:13.705Z,1.85
2023-04-02T03:30:59.421Z,1.38
2023-04-02T03:33:34.822Z,1.60
2023-04-02T03:36:20.352Z,1.40
2023-04-02T03:38:52.089Z,1.55
2023-04-02T03:41:22.804Z,1.58
2023-04-02T03:43:55.255Z,1.02
2023-04-02T03:46:27.905Z,2.03
2023-04-02T03:48:56.605Z,1.50
2023-04-02T03:51:48.487Z,1.40
2023-04-02T03:54:16.830Z,1.10
2023-04-02T03:56:47.254Z,2.00
2023-04-02T03:59:17.386Z,1.70
2023-04-02T04:01:49.455Z,1.75
